createdAt,value
2017-12-21T00:00:54.197Z,7.20
2017-12-21T00:03:20.552Z,7.20
2017-12-21T00:05:47.760Z,7.30
2017-12-21T00:08:14.115Z,7.20
2017-12-21T00:10:40.513Z,7.30
2017-12-21T00:13:07.611Z,7.30
2017-12-21T00:15:33.995Z,7.30
2017-12-21T00:18:00.375Z,7.30
2017-12-21T00:20:27.495Z,7.30
2017-12-21T00:22:55.340Z,7.20
2017-12-21T00:25:21.683Z,7.30
2017-12-21T00:27:48.064Z,7.30
2017-12-21T00:30:14.427Z,7.30
2017-12-21T00:32:41.576Z,7.30
2017-12-21T00:35:07.956Z,7.30
2017-12-21T00:37:34.332Z,7.30
2017-12-21T00:40:00.697Z,7.10
2017-12-21T00:42:27.128Z,7.30
2017-12-21T00:44:53.483Z,7.30
2017-12-21T00:47:19.860Z,7.30
2017-12-21T00:49:46.219Z,7.30
2017-12-21T00:52:12.609Z,7.30
2017-12-21T00:54:38.987Z,7.30
2017-12-21T00:57:05.389Z,7.30
2017-12-21T00:59:31.739Z,7.30
2017-12-21T01:01:58.101Z,7.30
2017-12-21T01:04:24.468Z,7.30
2017-12-21T01:06:50.820Z,7.30
2017-12-21T01:09:17.185Z,7.30
2017-12-21T01:11:43.612Z,7.30
2017-12-21T01:14:10.011Z,7.30
2017-12-21T01:16:37.126Z,7.30
2017-12-21T01:19:03.547Z,7.30
2017-12-21T01:21:30.064Z,7.30
2017-12-21T01:23:56.419Z,7.30
2017-12-21T01:26:22.787Z,7.20
2017-12-21T01:28:50.623Z,7.20
2017-12-21T01:31:16.973Z,7.20
2017-12-21T01:33:43.378Z,7.30
2017-12-21T01:36:09.751Z,7.30
2017-12-21T01:38:36.092Z,7.30
2017-12-21T01:41:02.494Z,7.30
2017-12-21T01:43:28.912Z,7.30
2017-12-21T01:45:55.359Z,7.30
2017-12-21T01:48:22.463Z,7.30
2017-12-21T01:50:48.832Z,7.20
2017-12-21T01:53:15.991Z,7.30
2017-12-21T01:55:42.341Z,7.30
2017-12-21T01:58:09.547Z,7.20
2017-12-21T02:00:35.963Z,7.30
2017-12-21T02:03:02.389Z,7.20
2017-12-21T02:05:28.746Z,7.30
2017-12-21T02:07:55.995Z,7.30
2017-12-21T02:10:22.367Z,7.20
2017-12-21T02:12:49.484Z,7.30
2017-12-21T02:15:15.840Z,7.20
2017-12-21T02:17:42.195Z,7.30
2017-12-21T02:20:08.577Z,7.30
2017-12-21T02:22:34.948Z,7.30
2017-12-21T02:25:01.480Z,7.30
2017-12-21T02:27:27.864Z,7.30
2017-12-21T02:29:55.036Z,7.20
2017-12-21T02:32:21.500Z,7.20
2017-12-21T02:34:47.929Z,7.30
2017-12-21T02:37:15.089Z,7.20
2017-12-21T02:39:41.517Z,7.20
2017-12-21T02:42:07.905Z,7.20
2017-12-21T02:44:34.296Z,7.20
2017-12-21T02:47:02.199Z,7.20
2017-12-21T02:49:28.605Z,7.20
2017-12-21T02:51:56.512Z,7.20
2017-12-21T02:54:22.911Z,7.20
2017-12-21T02:56:49.287Z,6.90
2017-12-21T02:59:15.660Z,7.20
2017-12-21T03:01:42.803Z,7.30
2017-12-21T03:04:10.679Z,7.20
2017-12-21T03:06:37.848Z,7.20
2017-12-21T03:09:04.672Z,7.20
2017-12-21T03:11:31.063Z,7.20
2017-12-21T03:13:57.447Z,7.20
2017-12-21T03:16:23.828Z,7.30
2017-12-21T03:18:51.792Z,7.20
2017-12-21T03:21:18.159Z,7.80
2017-12-21T03:23:46.046Z,7.10
2017-12-21T03:26:12.447Z,7.20
2017-12-21T03:28:38.840Z,7.20
2017-12-21T03:31:05.966Z,7.20
2017-12-21T03:33:33.154Z,7.20
2017-12-21T03:35:59.527Z,7.20
2017-12-21T03:38:25.934Z,7.20
2017-12-21T03:40:52.284Z,7.20
2017-12-21T03:43:19.387Z,7.20
2017-12-21T03:45:45.783Z,7.10
2017-12-21T03:48:12.153Z,7.20
2017-12-21T03:50:39.303Z,7.20
2017-12-21T03:53:06.431Z,7.20
2017-12-21T03:55:32.823Z,7.10
2017-12-21T03:57:59.347Z,7.20
2017-12-21T04:00:26.515Z,7.20
2017-12-21T04:02:52.852Z,6.80
2017-12-21T04:05:19.979Z,7.20
2017-12-21T04:07:46.348Z,7.10
2017-12-21T04:10:13.539Z,7.20
2017-12-21T04:12:40.620Z,7.10
2017-12-21T04:15:07.051Z,7.10
2017-12-21T04:17:33.442Z,7.20
2017-12-21T04:19:59.867Z,7.20
2017-12-21T04:22:26.252Z,7.20
2017-12-21T04:24:52.575Z,7.20
2017-12-21T04:27:18.976Z,7.20
2017-12-21T04:29:45.379Z,7.10
2017-12-21T04:32:11.767Z,7.20
2017-12-21T04:34:38.183Z,7.20
2017-12-21T04:37:04.855Z,7.20
2017-12-21T04:39:31.971Z,7.20
2017-12-21T04:41:58.377Z,7.20
2017-12-21T04:44:24.748Z,7.20
2017-12-21T04:46:51.157Z,7.20
2017-12-21T04:49:17.620Z,7.20
2017-12-21T04:51:43.988Z,7.20
2017-12-21T04:54:11.941Z,7.10
2017-12-21T04:56:38.338Z,7.10
2017-12-21T04:59:05.445Z,7.20
2017-12-21T05:01:31.846Z,7.10
2017-12-21T05:03:58.944Z,7.20
2017-12-21T05:06:25.324Z,7.20
2017-12-21T05:08:52.432Z,7.20
2017-12-21T05:11:19.524Z,7.20
2017-12-21T05:13:45.930Z,7.10
2017-12-21T05:16:13.430Z,7.20
2017-12-21T05:18:39.791Z,7.20
2017-12-21T05:21:06.395Z,7.20
2017-12-21T05:23:33.519Z,7.20
2017-12-21T05:25:59.977Z,7.20
2017-12-21T05:28:26.372Z,7.20
2017-12-21T05:30:52.739Z,7.20
2017-12-21T05:33:19.213Z,7.20
2017-12-21T05:35:45.571Z,7.20
2017-12-21T05:38:11.982Z,7.20
2017-12-21T05:40:38.371Z,7.20
2017-12-21T05:43:04.747Z,7.20
2017-12-21T05:45:32.590Z,7.10
2017-12-21T05:47:58.946Z,7.10
2017-12-21T05:50:25.360Z,7.20
2017-12-21T05:52:51.856Z,7.10
2017-12-21T05:55:18.232Z,7.10
2017-12-21T05:57:44.664Z,7.20
2017-12-21T06:00:12.164Z,7.10
2017-12-21T06:02:38.535Z,7.10
2017-12-21T06:05:04.988Z,7.20
2017-12-21T06:07:31.379Z,7.20
2017-12-21T06:09:57.759Z,7.20
2017-12-21T06:12:24.471Z,7.20
2017-12-21T06:14:50.856Z,7.20
2017-12-21T06:17:17.279Z,7.20
2017-12-21T06:19:43.766Z,7.20
2017-12-21T06:22:11.208Z,7.20
2017-12-21T06:24:37.590Z,7.20
2017-12-21T06:27:04.082Z,7.20
2017-12-21T06:29:30.455Z,7.20
2017-12-21T06:31:58.335Z,7.10
2017-12-21T06:34:24.723Z,7.20
2017-12-21T06:36:51.083Z,7.20
2017-12-21T06:39:18.219Z,7.20
2017-12-21T06:41:45.336Z,7.20
2017-12-21T06:44:11.690Z,7.20
2017-12-21T06:46:38.896Z,7.20
2017-12-21T06:49:05.239Z,7.20
2017-12-21T06:51:32.335Z,7.20
2017-12-21T06:53:58.693Z,7.20
2017-12-21T06:56:25.144Z,7.20
2017-12-21T06:58:51.627Z,7.20
2017-12-21T07:01:18.036Z,6.80
2017-12-21T07:03:44.455Z,7.30
2017-12-21T07:06:12.044Z,7.20
2017-12-21T07:08:38.483Z,7.20
2017-12-21T07:11:04.981Z,7.20
2017-12-21T07:13:31.442Z,7.30
2017-12-21T07:15:59.567Z,7.30
2017-12-21T07:18:33.161Z,7.20
2017-12-21T07:21:00.392Z,7.20
2017-12-21T07:23:26.991Z,7.20
2017-12-21T07:25:54.250Z,7.20
2017-12-21T07:28:22.656Z,7.30
2017-12-21T07:30:50.042Z,7.20
2017-12-21T07:33:16.514Z,6.40
2017-12-21T07:35:43.358Z,7.10
2017-12-21T07:38:10.680Z,7.30
2017-12-21T07:40:37.726Z,7.10
2017-12-21T07:43:06.442Z,7.30
2017-12-21T07:45:33.791Z,7.30
2017-12-21T07:48:00.649Z,7.30
2017-12-21T07:50:28.896Z,7.30
2017-12-21T07:52:55.435Z,7.20
2017-12-21T07:55:22.710Z,7.30
2017-12-21T07:57:51.878Z,7.30
2017-12-21T08:00:18.248Z,7.20
2017-12-21T08:02:44.762Z,7.30
2017-12-21T08:05:11.997Z,7.40
2017-12-21T08:07:38.512Z,7.30
2017-12-21T08:10:05.796Z,7.40
2017-12-21T08:12:33.630Z,7.40
2017-12-21T08:15:00.259Z,7.30
2017-12-21T08:17:27.429Z,7.40
2017-12-21T08:19:54.024Z,7.30
2017-12-21T08:22:20.766Z,7.40
2017-12-21T08:24:50.659Z,7.40
2017-12-21T08:27:17.684Z,7.40
2017-12-21T08:29:45.125Z,7.50
2017-12-21T08:32:12.297Z,7.40
2017-12-21T08:34:38.872Z,7.40
2017-12-21T08:37:05.705Z,7.50
2017-12-21T08:39:32.713Z,7.60
2017-12-21T08:41:59.829Z,7.60
2017-12-21T08:44:27.629Z,7.60
2017-12-21T08:46:54.496Z,7.60
2017-12-21T08:49:23.428Z,7.60
2017-12-21T08:51:51.368Z,7.50
2017-12-21T08:54:18.135Z,7.50
2017-12-21T08:56:44.585Z,7.60
2017-12-21T08:59:11.027Z,7.60
2017-12-21T09:01:38.218Z,7.60
2017-12-21T09:04:05.029Z,7.80
2017-12-21T09:06:32.316Z,7.60
2017-12-21T09:08:59.231Z,7.60
2017-12-21T09:11:25.728Z,7.60
2017-12-21T09:13:52.132Z,7.70
2017-12-21T09:16:18.518Z,7.70
2017-12-21T09:18:45.038Z,7.70
2017-12-21T09:21:13.382Z,7.70
2017-12-21T09:23:40.145Z,7.70
2017-12-21T09:26:06.731Z,7.70
2017-12-21T09:28:33.292Z,7.80
2017-12-21T09:31:00.532Z,7.80
2017-12-21T09:33:27.141Z,7.80
2017-12-21T09:35:53.967Z,7.80
2017-12-21T09:38:20.529Z,7.90
2017-12-21T09:40:50.812Z,7.80
2017-12-21T09:43:17.445Z,7.80
2017-12-21T09:45:44.424Z,7.90
2017-12-21T09:48:11.323Z,7.90
2017-12-21T09:50:38.620Z,7.90
2017-12-21T09:53:05.683Z,7.90
2017-12-21T09:55:32.121Z,7.90
2017-12-21T09:57:59.732Z,7.90
2017-12-21T10:00:26.201Z,7.90
2017-12-21T10:02:55.621Z,7.90
2017-12-21T10:05:23.845Z,7.90
2017-12-21T10:07:51.132Z,8.00
2017-12-21T10:10:17.710Z,7.80
2017-12-21T10:12:45.269Z,8.00
2017-12-21T10:15:11.889Z,8.00
2017-12-21T10:17:40.275Z,8.00
2017-12-21T10:20:06.660Z,8.00
2017-12-21T10:22:33.098Z,8.00
2017-12-21T10:24:59.487Z,8.10
2017-12-21T10:27:26.694Z,8.10
2017-12-21T10:29:53.252Z,8.10
2017-12-21T10:32:19.871Z,8.20
2017-12-21T10:34:47.117Z,8.30
2017-12-21T10:37:13.527Z,8.30
2017-12-21T10:39:40.051Z,8.40
2017-12-21T10:42:06.431Z,8.40
2017-12-21T10:44:32.856Z,8.50
2017-12-21T10:46:59.280Z,8.60
2017-12-21T10:49:25.751Z,8.80
2017-12-21T10:51:52.402Z,8.70
2017-12-21T10:54:18.788Z,8.70
2017-12-21T10:56:45.239Z,8.80
2017-12-21T10:59:11.761Z,8.80
2017-12-21T11:01:38.504Z,8.80
2017-12-21T11:04:05.199Z,8.80
2017-12-21T11:06:31.700Z,8.80
2017-12-21T11:08:58.186Z,8.80
2017-12-21T11:11:25.397Z,8.80
2017-12-21T11:13:52.598Z,8.80
2017-12-21T11:16:19.067Z,8.80
2017-12-21T11:18:45.587Z,8.70
2017-12-21T11:21:12.913Z,8.70
2017-12-21T11:23:39.660Z,8.70
2017-12-21T11:26:06.137Z,8.70
2017-12-21T11:28:32.558Z,8.70
2017-12-21T11:30:58.984Z,8.60
2017-12-21T11:33:25.500Z,8.60
2017-12-21T11:35:52.700Z,8.60
2017-12-21T11:38:19.155Z,8.60
2017-12-21T11:40:45.588Z,8.60
2017-12-21T11:43:12.001Z,8.60
2017-12-21T11:45:38.405Z,8.40
2017-12-21T11:48:05.073Z,8.60
2017-12-21T11:50:32.253Z,8.60
2017-12-21T11:52:59.434Z,8.50
2017-12-21T11:55:25.979Z,8.50
2017-12-21T11:57:52.463Z,8.60
2017-12-21T12:00:19.657Z,8.50
2017-12-21T12:02:46.351Z,8.50
2017-12-21T12:05:14.626Z,8.50
2017-12-21T12:07:42.238Z,8.50
2017-12-21T12:10:08.956Z,8.50
2017-12-21T12:12:36.141Z,8.60
2017-12-21T12:15:03.413Z,9.00
2017-12-21T12:20:23.597Z,8.60
2017-12-21T12:22:51.026Z,8.70
2017-12-21T12:25:17.968Z,8.70
2017-12-21T12:27:44.472Z,8.80
2017-12-21T12:30:11.754Z,8.80
2017-12-21T12:32:38.252Z,8.70
2017-12-21T12:35:04.710Z,8.80
2017-12-21T12:37:31.154Z,8.70
2017-12-21T12:39:57.757Z,8.80
2017-12-21T12:42:24.923Z,8.80
2017-12-21T12:44:51.398Z,8.70
2017-12-21T12:47:18.085Z,8.80
2017-12-21T12:49:45.288Z,8.80
2017-12-21T12:52:12.074Z,8.80
2017-12-21T12:54:41.521Z,8.80
2017-12-21T12:57:07.923Z,8.90
2017-12-21T12:59:34.432Z,8.80
2017-12-21T13:02:00.938Z,8.90
2017-12-21T13:04:27.364Z,8.80
2017-12-21T13:06:53.854Z,8.90
2017-12-21T13:09:20.299Z,8.80
2017-12-21T13:11:46.751Z,8.80
2017-12-21T13:14:13.168Z,8.80
2017-12-21T13:16:41.440Z,8.80
2017-12-21T13:19:08.620Z,8.80
2017-12-21T13:21:35.838Z,8.80
2017-12-21T13:24:02.518Z,8.80
2017-12-21T13:26:29.391Z,8.80
2017-12-21T13:28:55.834Z,8.80
2017-12-21T13:31:22.346Z,8.80
2017-12-21T13:33:48.783Z,8.90
2017-12-21T13:36:15.217Z,8.90
2017-12-21T13:38:41.708Z,8.90
2017-12-21T13:41:08.127Z,9.00
2017-12-21T13:43:35.821Z,9.00
2017-12-21T13:46:02.525Z,8.90
2017-12-21T13:48:28.955Z,9.30
2017-12-21T13:50:55.649Z,9.00
2017-12-21T13:53:22.167Z,9.00
2017-12-21T13:55:49.436Z,8.90
2017-12-21T13:58:15.865Z,8.90
2017-12-21T14:00:42.309Z,8.90
2017-12-21T14:03:09.466Z,8.90
2017-12-21T14:05:36.608Z,8.90
2017-12-21T14:08:03.270Z,8.90
2017-12-21T14:10:29.936Z,8.90
2017-12-21T14:12:57.421Z,8.90
2017-12-21T14:15:24.571Z,8.90
2017-12-21T14:17:51.780Z,8.90
2017-12-21T14:20:18.911Z,9.00
2017-12-21T14:22:45.320Z,9.00
2017-12-21T14:25:11.774Z,9.00
2017-12-21T14:27:38.924Z,9.00
2017-12-21T14:30:05.666Z,9.00
2017-12-21T14:32:32.107Z,9.00
2017-12-21T14:34:58.519Z,9.00
2017-12-21T14:37:24.983Z,8.30
2017-12-21T14:39:51.558Z,8.90
2017-12-21T14:42:18.048Z,8.90
2017-12-21T14:44:44.469Z,8.90
2017-12-21T14:47:10.918Z,8.90
2017-12-21T14:49:38.100Z,8.90
2017-12-21T14:52:05.279Z,8.80
2017-12-21T14:54:31.672Z,8.80
2017-12-21T14:56:58.756Z,8.90
2017-12-21T14:59:25.883Z,8.80
2017-12-21T15:01:55.202Z,8.80
2017-12-21T15:04:21.663Z,8.70
2017-12-21T15:06:48.078Z,8.80
2017-12-21T15:09:14.503Z,8.70
2017-12-21T15:11:41.064Z,8.80
2017-12-21T15:14:07.667Z,8.70
2017-12-21T15:16:34.168Z,8.70
2017-12-21T15:19:01.651Z,8.70
2017-12-21T15:21:28.152Z,8.70
2017-12-21T15:23:54.763Z,8.80
2017-12-21T15:26:21.254Z,8.70
2017-12-21T15:28:47.893Z,8.70
2017-12-21T15:31:15.167Z,8.70
2017-12-21T15:33:41.649Z,8.70
2017-12-21T15:36:08.129Z,8.60
2017-12-21T15:38:35.252Z,8.70
2017-12-21T15:41:06.566Z,8.70
2017-12-21T15:43:34.901Z,8.70
2017-12-21T15:46:01.286Z,8.70
2017-12-21T15:48:28.481Z,8.70
2017-12-21T15:50:54.896Z,8.70
2017-12-21T15:53:21.279Z,8.70
2017-12-21T15:55:47.747Z,8.60
2017-12-21T15:58:14.121Z,8.70
2017-12-21T16:00:40.555Z,8.70
2017-12-21T16:03:07.101Z,8.70
2017-12-21T16:05:34.260Z,8.70
2017-12-21T16:08:00.666Z,8.60
2017-12-21T16:10:27.091Z,8.70
2017-12-21T16:12:54.236Z,8.70
2017-12-21T16:15:20.615Z,8.70
2017-12-21T16:17:47.058Z,8.70
2017-12-21T16:20:13.507Z,8.50
2017-12-21T16:22:39.912Z,8.70
2017-12-21T16:25:06.336Z,8.60
2017-12-21T16:27:32.723Z,8.60
2017-12-21T16:29:59.828Z,8.70
2017-12-21T16:32:26.216Z,8.60
2017-12-21T16:34:52.620Z,8.60
2017-12-21T16:37:19.013Z,8.60
2017-12-21T16:39:45.379Z,8.60
2017-12-21T16:42:11.800Z,8.60
2017-12-21T16:44:38.903Z,8.60
2017-12-21T16:47:05.271Z,8.60
2017-12-21T16:49:31.700Z,8.60
2017-12-21T16:51:58.080Z,8.60
2017-12-21T16:54:25.179Z,8.60
2017-12-21T16:56:51.595Z,8.60
2017-12-21T16:59:17.992Z,8.70
2017-12-21T17:01:44.404Z,8.60
2017-12-21T17:04:10.949Z,8.60
2017-12-21T17:06:37.389Z,8.60
2017-12-21T17:09:03.775Z,8.70
2017-12-21T17:11:30.193Z,8.70
2017-12-21T17:13:56.582Z,8.60
2017-12-21T17:16:22.996Z,8.70
2017-12-21T17:18:50.116Z,8.60
2017-12-21T17:21:16.503Z,8.60
2017-12-21T17:23:42.854Z,8.60
2017-12-21T17:26:10.004Z,8.70
2017-12-21T17:28:36.427Z,8.60
2017-12-21T17:31:02.861Z,8.60
2017-12-21T17:33:29.284Z,8.60
2017-12-21T17:35:55.631Z,8.70
2017-12-21T17:38:22.070Z,8.70
2017-12-21T17:40:48.475Z,8.70
2017-12-21T17:43:14.880Z,8.70
2017-12-21T17:45:41.328Z,8.70
2017-12-21T17:48:07.775Z,8.70
2017-12-21T17:50:34.160Z,8.70
2017-12-21T17:53:00.567Z,8.70
2017-12-21T17:55:26.956Z,8.60
2017-12-21T17:57:53.363Z,8.70
2017-12-21T18:00:19.822Z,8.70
2017-12-21T18:02:47.003Z,8.60
2017-12-21T18:05:13.397Z,8.60
2017-12-21T18:07:39.791Z,8.60
2017-12-21T18:10:06.486Z,8.70
2017-12-21T18:12:32.864Z,8.60
2017-12-21T18:14:59.291Z,8.70
2017-12-21T18:17:25.814Z,8.70
2017-12-21T18:19:52.280Z,8.70
2017-12-21T18:22:18.714Z,8.70
2017-12-21T18:24:45.093Z,8.60
2017-12-21T18:27:11.624Z,8.60
2017-12-21T18:29:38.011Z,8.70
2017-12-21T18:32:04.810Z,8.60
2017-12-21T18:34:31.278Z,8.60
2017-12-21T18:36:57.743Z,8.70
2017-12-21T18:39:24.196Z,8.60
2017-12-21T18:41:51.351Z,8.60
2017-12-21T18:44:17.750Z,8.60
2017-12-21T18:46:44.181Z,8.60
2017-12-21T18:49:10.560Z,8.60
2017-12-21T18:51:36.948Z,8.60
2017-12-21T18:54:04.587Z,8.60
2017-12-21T18:56:30.956Z,8.60
2017-12-21T18:58:58.159Z,8.60
2017-12-21T19:01:24.589Z,8.60
2017-12-21T19:03:51.077Z,8.60
2017-12-21T19:06:17.584Z,8.60
2017-12-21T19:08:44.715Z,8.60
2017-12-21T19:11:11.898Z,8.60
2017-12-21T19:13:38.351Z,8.60
2017-12-21T19:16:04.899Z,8.60
2017-12-21T19:18:31.313Z,8.60
2017-12-21T19:20:58.448Z,8.60
2017-12-21T19:23:25.160Z,8.60
2017-12-21T19:25:51.631Z,8.60
2017-12-21T19:28:18.062Z,8.00
2017-12-21T19:30:44.540Z,8.60
2017-12-21T19:33:11.158Z,8.60
2017-12-21T19:35:37.654Z,8.60
2017-12-21T19:38:04.665Z,8.60
2017-12-21T19:40:31.123Z,8.60
2017-12-21T19:42:57.550Z,8.60
2017-12-21T19:45:23.995Z,8.60
2017-12-21T19:47:50.434Z,8.60
2017-12-21T19:50:16.877Z,8.60
2017-12-21T19:52:43.267Z,8.60
2017-12-21T19:55:09.783Z,8.60
2017-12-21T19:57:36.172Z,8.60
2017-12-21T20:00:02.808Z,8.50
2017-12-21T20:02:29.226Z,8.40
2017-12-21T20:04:55.651Z,8.40
2017-12-21T20:07:22.094Z,8.40
2017-12-21T20:09:48.530Z,8.30
2017-12-21T20:12:14.923Z,8.30
2017-12-21T20:14:41.444Z,8.20
2017-12-21T20:17:07.935Z,8.10
2017-12-21T20:19:34.390Z,8.10
2017-12-21T20:22:01.604Z,8.10
2017-12-21T20:24:28.061Z,8.10
2017-12-21T20:26:54.476Z,8.10
2017-12-21T20:29:20.903Z,8.20
2017-12-21T20:31:47.313Z,8.10
2017-12-21T20:34:13.753Z,8.20
2017-12-21T20:36:40.140Z,8.20
2017-12-21T20:39:07.246Z,8.20
2017-12-21T20:41:33.673Z,8.20
2017-12-21T20:44:00.071Z,8.30
2017-12-21T20:46:27.299Z,8.30
2017-12-21T20:48:53.842Z,8.30
2017-12-21T20:51:21.837Z,8.30
2017-12-21T20:53:48.320Z,8.40
2017-12-21T20:56:15.495Z,8.40
2017-12-21T20:58:42.703Z,8.40
2017-12-21T21:01:09.125Z,8.10
2017-12-21T21:03:35.555Z,8.40
2017-12-21T21:06:02.075Z,8.40
2017-12-21T21:08:28.529Z,8.40
2017-12-21T21:10:55.006Z,8.40
2017-12-21T21:13:21.423Z,8.40
2017-12-21T21:15:47.954Z,8.30
2017-12-21T21:18:14.582Z,8.30
2017-12-21T21:20:41.036Z,8.30
2017-12-21T21:23:07.484Z,8.40
2017-12-21T21:25:34.687Z,8.30
2017-12-21T21:28:01.175Z,8.30
2017-12-21T21:30:28.423Z,8.30
2017-12-21T21:32:54.823Z,8.30
2017-12-21T21:35:22.011Z,8.30
2017-12-21T21:37:48.424Z,8.10
2017-12-21T21:40:15.859Z,8.30
2017-12-21T21:42:42.306Z,8.30
2017-12-21T21:45:08.759Z,8.30
2017-12-21T21:47:35.297Z,8.30
2017-12-21T21:50:01.950Z,8.30
2017-12-21T21:52:29.171Z,8.30
2017-12-21T21:54:55.673Z,8.30
2017-12-21T21:57:22.175Z,8.30
2017-12-21T21:59:49.389Z,8.30
2017-12-21T22:02:15.910Z,8.30
2017-12-21T22:04:42.296Z,8.40
2017-12-21T22:07:09.554Z,8.30
2017-12-21T22:09:35.969Z,8.30
2017-12-21T22:12:02.617Z,8.40
2017-12-21T22:14:29.069Z,8.30
2017-12-21T22:16:55.487Z,8.40
2017-12-21T22:19:21.951Z,8.40
2017-12-21T22:21:49.151Z,8.40
2017-12-21T22:24:16.303Z,8.40
2017-12-21T22:26:42.704Z,8.40
2017-12-21T22:29:09.129Z,8.40
2017-12-21T22:31:35.642Z,8.40
2017-12-21T22:34:03.282Z,8.40
2017-12-21T22:36:29.811Z,8.40
2017-12-21T22:38:56.258Z,8.40
2017-12-21T22:41:22.695Z,8.50
2017-12-21T22:43:49.123Z,8.40
2017-12-21T22:46:16.235Z,8.50
2017-12-21T22:48:42.615Z,8.40
2017-12-21T22:51:09.805Z,8.50
2017-12-21T22:53:36.225Z,8.50
2017-12-21T22:56:03.192Z,8.50
2017-12-21T22:58:29.670Z,8.50
2017-12-21T23:00:56.078Z,8.50
2017-12-21T23:03:23.246Z,8.50
2017-12-21T23:05:50.428Z,8.50
2017-12-21T23:08:16.815Z,8.50
2017-12-21T23:10:43.236Z,8.50
2017-12-21T23:13:09.709Z,8.50
2017-12-21T23:15:36.123Z,8.50
2017-12-21T23:18:02.883Z,8.50
2017-12-21T23:20:29.365Z,8.50
2017-12-21T23:22:55.781Z,8.50
2017-12-21T23:25:22.284Z,8.50
2017-12-21T23:27:48.686Z,8.50
2017-12-21T23:30:15.853Z,8.40
2017-12-21T23:32:42.290Z,8.40
2017-12-21T23:35:08.667Z,8.50
2017-12-21T23:37:35.130Z,8.40
2017-12-21T23:40:01.559Z,8.40
2017-12-21T23:42:27.988Z,8.40
2017-12-21T23:44:54.371Z,8.50
2017-12-21T23:47:20.847Z,8.50
2017-12-21T23:49:47.372Z,8.50
2017-12-21T23:52:13.813Z,8.50
2017-12-21T23:54:40.192Z,8.50
2017-12-21T23:57:08.142Z,8.40
2017-12-21T23:59:34.553Z,8.50
